sensor_id;sensor_type;location;lat;lon;timestamp;temperature;humidity
15103;DHT22;7652;53.584;9.998;2023-02-02T00:01:55;6.60;99.90
15103;DHT22;7652;53.584;9.998;2023-02-02T00:04:58;6.50;99.90
15103;DHT22;7652;53.584;9.998;2023-02-02T00:08:01;6.50;99.90
15103;DHT22;7652;53.584;9.998;2023-02-02T00:11:04;6.50;99.90
15103;DHT22;7652;53.584;9.998;2023-02-02T00:14:07;6.60;99.90
15103;DHT22;7652;53.584;9.998;2023-02-02T00:17:12;6.50;99.90
15103;DHT22;7652;53.584;9.998;2023-02-02T00:20:15;6.50;99.90
15103;DHT22;7652;53.584;9.998;2023-02-02T00:23:18;6.50;99.90
15103;DHT22;7652;53.584;9.998;2023-02-02T00:26:21;6.50;99.90
15103;DHT22;7652;53.584;9.998;2023-02-02T00:29:25;6.50;99.90
15103;DHT22;7652;53.584;9.998;2023-02-02T00:32:29;6.50;99.90
15103;DHT22;7652;53.584;9.998;2023-02-02T00:35:32;6.60;99.90
15103;DHT22;7652;53.584;9.998;2023-02-02T00:38:35;6.60;99.90
15103;DHT22;7652;53.584;9.998;2023-02-02T00:41:39;6.70;99.90
15103;DHT22;7652;53.584;9.998;2023-02-02T00:44:41;6.60;99.90
15103;DHT22;7652;53.584;9.998;2023-02-02T00:48:04;6.60;99.90
15103;DHT22;7652;53.584;9.998;2023-02-02T00:51:07;6.70;99.90
15103;DHT22;7652;53.584;9.998;2023-02-02T00:54:10;6.70;99.90
15103;DHT22;7652;53.584;9.998;2023-02-02T00:57:15;6.70;99.90
15103;DHT22;7652;53.584;9.998;2023-02-02T01:00:20;6.80;99.90
15103;DHT22;7652;53.584;9.998;2023-02-02T01:03:25;6.80;99.90
15103;DHT22;7652;53.584;9.998;2023-02-02T01:06:28;6.70;99.90
15103;DHT22;7652;53.584;9.998;2023-02-02T01:09:31;6.70;99.90
15103;DHT22;7652;53.584;9.998;2023-02-02T01:12:34;6.70;99.90
15103;DHT22;7652;53.584;9.998;2023-02-02T01:15:37;6.70;99.90
15103;DHT22;7652;53.584;9.998;2023-02-02T01:18:42;6.60;99.90
15103;DHT22;7652;53.584;9.998;2023-02-02T01:21:45;6.60;99.90
15103;DHT22;7652;53.584;9.998;2023-02-02T01:24:48;6.50;99.90
15103;DHT22;7652;53.584;9.998;2023-02-02T01:27:51;6.40;99.90
15103;DHT22;7652;53.584;9.998;2023-02-02T01:30:54;6.40;99.90
15103;DHT22;7652;53.584;9.998;2023-02-02T01:33:58;6.30;99.90
15103;DHT22;7652;53.584;9.998;2023-02-02T01:37:01;6.30;99.90
15103;DHT22;7652;53.584;9.998;2023-02-02T01:40:06;6.30;99.90
15103;DHT22;7652;53.584;9.998;2023-02-02T01:43:18;6.40;99.90
15103;DHT22;7652;53.584;9.998;2023-02-02T01:46:27;6.40;99.90
15103;DHT22;7652;53.584;9.998;2023-02-02T01:49:32;6.40;99.90
15103;DHT22;7652;53.584;9.998;2023-02-02T01:52:36;6.40;99.90
15103;DHT22;7652;53.584;9.998;2023-02-02T01:55:40;6.30;99.90
15103;DHT22;7652;53.584;9.998;2023-02-02T01:58:44;6.20;99.90
15103;DHT22;7652;53.584;9.998;2023-02-02T02:01:48;6.10;99.90
15103;DHT22;7652;53.584;9.998;2023-02-02T02:04:54;6.10;99.90
15103;DHT22;7652;53.584;9.998;2023-02-02T02:08:15;6.10;99.90
15103;DHT22;7652;53.584;9.998;2023-02-02T02:11:19;6.10;99.90
15103;DHT22;7652;53.584;9.998;2023-02-02T02:14:22;6.10;99.90
15103;DHT22;7652;53.584;9.998;2023-02-02T02:17:49;6.20;99.90
15103;DHT22;7652;53.584;9.998;2023-02-02T02:21:24;6.10;99.90
15103;DHT22;7652;53.584;9.998;2023-02-02T02:29:07;6.10;99.90
15103;DHT22;7652;53.584;9.998;2023-02-02T02:32:26;6.00;99.90
15103;DHT22;7652;53.584;9.998;2023-02-02T02:35:37;6.00;99.90
15103;DHT22;7652;53.584;9.998;2023-02-02T02:38:49;5.90;99.90
15103;DHT22;7652;53.584;9.998;2023-02-02T02:41:57;5.90;99.90
15103;DHT22;7652;53.584;9.998;2023-02-02T02:45:03;5.80;99.90
15103;DHT22;7652;53.584;9.998;2023-02-02T02:48:09;5.80;99.90
15103;DHT22;7652;53.584;9.998;2023-02-02T02:51:38;5.70;99.90
15103;DHT22;7652;53.584;9.998;2023-02-02T02:54:45;5.70;99.90
15103;DHT22;7652;53.584;9.998;2023-02-02T02:58:02;5.70;99.90
15103;DHT22;7652;53.584;9.998;2023-02-02T03:01:09;5.80;99.90
15103;DHT22;7652;53.584;9.998;2023-02-02T03:04:21;5.90;99.90
15103;DHT22;7652;53.584;9.998;2023-02-02T03:07:32;5.90;99.90
15103;DHT22;7652;53.584;9.998;2023-02-02T03:10:37;5.90;99.90
15103;DHT22;7652;53.584;9.998;2023-02-02T03:13:42;5.90;99.90
15103;DHT22;7652;53.584;9.998;2023-02-02T03:16:46;5.90;99.90
15103;DHT22;7652;53.584;9.998;2023-02-02T03:19:51;6.00;99.90
15103;DHT22;7652;53.584;9.998;2023-02-02T03:22:54;6.10;99.90
15103;DHT22;7652;53.584;9.998;2023-02-02T03:25:57;6.20;99.90
15103;DHT22;7652;53.584;9.998;2023-02-02T03:29:01;6.30;99.90
15103;DHT22;7652;53.584;9.998;2023-02-02T03:32:04;6.30;99.90
15103;DHT22;7652;53.584;9.998;2023-02-02T03:35:09;6.30;99.90
15103;DHT22;7652;53.584;9.998;2023-02-02T03:38:12;6.40;99.90
15103;DHT22;7652;53.584;9.998;2023-02-02T03:41:15;6.40;99.90
15103;DHT22;7652;53.584;9.998;2023-02-02T03:44:18;6.40;99.90
15103;DHT22;7652;53.584;9.998;2023-02-02T03:47:21;6.30;99.90
15103;DHT22;7652;53.584;9.998;2023-02-02T03:50:25;6.30;99.90
15103;DHT22;7652;53.584;9.998;2023-02-02T03:53:28;6.20;99.90
15103;DHT22;7652;53.584;9.998;2023-02-02T03:56:31;6.10;99.90
15103;DHT22;7652;53.584;9.998;2023-02-02T03:59:34;6.10;99.90
15103;DHT22;7652;53.584;9.998;2023-02-02T04:02:37;6.10;99.90
15103;DHT22;7652;53.584;9.998;2023-02-02T04:05:41;6.10;99.90
15103;DHT22;7652;53.584;9.998;2023-02-02T04:08:44;6.10;99.90
15103;DHT22;7652;53.584;9.998;2023-02-02T04:11:47;6.10;99.90
15103;DHT22;7652;53.584;9.998;2023-02-02T04:14:50;6.10;99.90
15103;DHT22;7652;53.584;9.998;2023-02-02T04:17:53;6.10;99.90
15103;DHT22;7652;53.584;9.998;2023-02-02T04:20:58;6.20;99.90
15103;DHT22;7652;53.584;9.998;2023-02-02T04:24:01;6.20;99.90
15103;DHT22;7652;53.584;9.998;2023-02-02T04:27:05;6.20;99.90
15103;DHT22;7652;53.584;9.998;2023-02-02T04:30:09;6.20;99.90
15103;DHT22;7652;53.584;9.998;2023-02-02T04:33:12;6.20;99.90
15103;DHT22;7652;53.584;9.998;2023-02-02T04:36:16;6.10;99.90
15103;DHT22;7652;53.584;9.998;2023-02-02T04:39:19;6.00;99.90
15103;DHT22;7652;53.584;9.998;2023-02-02T04:42:22;5.90;99.90
15103;DHT22;7652;53.584;9.998;2023-02-02T04:45:25;5.90;99.90
15103;DHT22;7652;53.584;9.998;2023-02-02T04:48:29;5.80;99.90
15103;DHT22;7652;53.584;9.998;2023-02-02T04:51:33;5.80;99.90
15103;DHT22;7652;53.584;9.998;2023-02-02T04:54:36;5.70;99.90
15103;DHT22;7652;53.584;9.998;2023-02-02T04:57:39;5.70;99.90
15103;DHT22;7652;53.584;9.998;2023-02-02T05:00:42;5.70;99.90
15103;DHT22;7652;53.584;9.998;2023-02-02T05:03:46;5.70;99.90
15103;DHT22;7652;53.584;9.998;2023-02-02T05:06:50;5.70;99.90
15103;DHT22;7652;53.584;9.998;2023-02-02T05:09:53;5.70;99.90
15103;DHT22;7652;53.584;9.998;2023-02-02T05:12:56;5.70;99.90
15103;DHT22;7652;53.584;9.998;2023-02-02T05:15:59;5.80;99.90
15103;DHT22;7652;53.584;9.998;2023-02-02T05:19:02;5.80;99.90
15103;DHT22;7652;53.584;9.998;2023-02-02T05:22:06;5.80;99.90
15103;DHT22;7652;53.584;9.998;2023-02-02T05:25:09;5.80;99.90
15103;DHT22;7652;53.584;9.998;2023-02-02T05:28:12;5.80;99.90
15103;DHT22;7652;53.584;9.998;2023-02-02T05:31:15;5.70;99.90
15103;DHT22;7652;53.584;9.998;2023-02-02T05:34:18;5.60;99.90
15103;DHT22;7652;53.584;9.998;2023-02-02T05:37:22;5.60;99.90
15103;DHT22;7652;53.584;9.998;2023-02-02T05:40:25;5.60;99.90
15103;DHT22;7652;53.584;9.998;2023-02-02T05:43:30;5.60;99.90
15103;DHT22;7652;53.584;9.998;2023-02-02T05:46:33;5.60;99.90
15103;DHT22;7652;53.584;9.998;2023-02-02T05:49:36;5.60;99.90
15103;DHT22;7652;53.584;9.998;2023-02-02T05:52:42;5.60;99.90
15103;DHT22;7652;53.584;9.998;2023-02-02T05:55:46;5.60;99.90
15103;DHT22;7652;53.584;9.998;2023-02-02T05:58:49;5.60;99.90
15103;DHT22;7652;53.584;9.998;2023-02-02T06:01:52;5.70;99.90
15103;DHT22;7652;53.584;9.998;2023-02-02T06:04:56;5.70;99.90
15103;DHT22;7652;53.584;9.998;2023-02-02T06:08:00;5.70;99.90
15103;DHT22;7652;53.584;9.998;2023-02-02T06:11:08;5.70;99.90
15103;DHT22;7652;53.584;9.998;2023-02-02T06:14:11;5.70;99.90
15103;DHT22;7652;53.584;9.998;2023-02-02T06:17:14;5.70;99.90
15103;DHT22;7652;53.584;9.998;2023-02-02T06:20:17;5.70;99.90
15103;DHT22;7652;53.584;9.998;2023-02-02T06:23:24;5.70;99.90
15103;DHT22;7652;53.584;9.998;2023-02-02T06:26:27;5.80;99.90
15103;DHT22;7652;53.584;9.998;2023-02-02T06:29:30;5.80;99.90
15103;DHT22;7652;53.584;9.998;2023-02-02T06:32:33;5.90;99.90
15103;DHT22;7652;53.584;9.998;2023-02-02T06:35:36;5.90;99.90
15103;DHT22;7652;53.584;9.998;2023-02-02T06:38:40;5.90;99.90
15103;DHT22;7652;53.584;9.998;2023-02-02T06:41:43;5.90;99.90
15103;DHT22;7652;53.584;9.998;2023-02-02T06:44:47;5.90;99.90
15103;DHT22;7652;53.584;9.998;2023-02-02T06:47:50;5.90;99.90
15103;DHT22;7652;53.584;9.998;2023-02-02T06:50:56;6.00;99.90
15103;DHT22;7652;53.584;9.998;2023-02-02T06:54:01;6.10;99.90
15103;DHT22;7652;53.584;9.998;2023-02-02T06:57:04;6.00;99.90
15103;DHT22;7652;53.584;9.998;2023-02-02T07:00:08;6.00;99.90
15103;DHT22;7652;53.584;9.998;2023-02-02T07:03:11;5.90;99.90
15103;DHT22;7652;53.584;9.998;2023-02-02T07:06:16;5.90;99.90
15103;DHT22;7652;53.584;9.998;2023-02-02T07:09:21;5.80;99.90
15103;DHT22;7652;53.584;9.998;2023-02-02T07:12:24;5.80;99.90
15103;DHT22;7652;53.584;9.998;2023-02-02T07:15:27;5.80;99.90
15103;DHT22;7652;53.584;9.998;2023-02-02T07:18:30;5.70;99.90
15103;DHT22;7652;53.584;9.998;2023-02-02T07:21:33;5.70;99.90
15103;DHT22;7652;53.584;9.998;2023-02-02T07:24:38;5.80;99.90
15103;DHT22;7652;53.584;9.998;2023-02-02T07:27:41;5.80;99.90
15103;DHT22;7652;53.584;9.998;2023-02-02T07:30:44;5.70;99.90
15103;DHT22;7652;53.584;9.998;2023-02-02T07:33:48;5.70;99.90
15103;DHT22;7652;53.584;9.998;2023-02-02T07:36:50;5.70;99.90
15103;DHT22;7652;53.584;9.998;2023-02-02T07:39:55;5.70;99.90
15103;DHT22;7652;53.584;9.998;2023-02-02T07:42:58;5.70;99.90
15103;DHT22;7652;53.584;9.998;2023-02-02T07:46:04;5.70;99.90
15103;DHT22;7652;53.584;9.998;2023-02-02T07:49:11;5.80;99.90
15103;DHT22;7652;53.584;9.998;2023-02-02T07:52:15;5.80;99.90
15103;DHT22;7652;53.584;9.998;2023-02-02T07:55:19;5.90;99.90
15103;DHT22;7652;53.584;9.998;2023-02-02T07:58:22;5.90;99.90
15103;DHT22;7652;53.584;9.998;2023-02-02T08:01:26;6.00;99.90
15103;DHT22;7652;53.584;9.998;2023-02-02T08:04:30;6.10;99.90
15103;DHT22;7652;53.584;9.998;2023-02-02T08:07:34;6.10;99.90
15103;DHT22;7652;53.584;9.998;2023-02-02T08:10:38;6.10;99.90
15103;DHT22;7652;53.584;9.998;2023-02-02T08:13:42;6.00;99.90
15103;DHT22;7652;53.584;9.998;2023-02-02T08:16:45;6.10;99.90
15103;DHT22;7652;53.584;9.998;2023-02-02T08:19:48;6.10;99.90
15103;DHT22;7652;53.584;9.998;2023-02-02T08:22:52;6.10;99.90
15103;DHT22;7652;53.584;9.998;2023-02-02T08:26:05;6.20;99.90
15103;DHT22;7652;53.584;9.998;2023-02-02T08:29:08;6.20;99.90
15103;DHT22;7652;53.584;9.998;2023-02-02T08:32:12;6.20;99.90
15103;DHT22;7652;53.584;9.998;2023-02-02T08:35:15;6.40;99.90
15103;DHT22;7652;53.584;9.998;2023-02-02T08:38:19;6.70;99.90
15103;DHT22;7652;53.584;9.998;2023-02-02T08:41:24;7.00;99.90
15103;DHT22;7652;53.584;9.998;2023-02-02T08:44:27;7.20;99.90
15103;DHT22;7652;53.584;9.998;2023-02-02T08:47:49;7.30;99.90
15103;DHT22;7652;53.584;9.998;2023-02-02T08:51:14;7.30;99.90
15103;DHT22;7652;53.584;9.998;2023-02-02T08:54:17;7.30;99.90
15103;DHT22;7652;53.584;9.998;2023-02-02T08:57:21;7.30;99.90
15103;DHT22;7652;53.584;9.998;2023-02-02T09:00:25;7.20;99.90
15103;DHT22;7652;53.584;9.998;2023-02-02T09:03:28;7.30;99.90
15103;DHT22;7652;53.584;9.998;2023-02-02T09:06:32;7.40;99.90
15103;DHT22;7652;53.584;9.998;2023-02-02T09:09:35;7.70;99.90
15103;DHT22;7652;53.584;9.998;2023-02-02T09:12:39;7.90;99.90
15103;DHT22;7652;53.584;9.998;2023-02-02T09:15:42;8.30;99.90
15103;DHT22;7652;53.584;9.998;2023-02-02T09:18:45;8.40;99.90
15103;DHT22;7652;53.584;9.998;2023-02-02T09:21:48;8.40;99.90
15103;DHT22;7652;53.584;9.998;2023-02-02T09:24:51;8.50;99.90
15103;DHT22;7652;53.584;9.998;2023-02-02T09:27:56;8.70;99.90
15103;DHT22;7652;53.584;9.998;2023-02-02T09:31:00;8.90;99.90
15103;DHT22;7652;53.584;9.998;2023-02-02T09:34:04;9.20;99.90
15103;DHT22;7652;53.584;9.998;2023-02-02T09:37:08;9.60;99.90
15103;DHT22;7652;53.584;9.998;2023-02-02T09:40:14;9.70;99.90
15103;DHT22;7652;53.584;9.998;2023-02-02T09:43:36;9.90;99.90
15103;DHT22;7652;53.584;9.998;2023-02-02T09:46:53;10.00;99.90
15103;DHT22;7652;53.584;9.998;2023-02-02T09:50:01;10.30;99.90
15103;DHT22;7652;53.584;9.998;2023-02-02T09:53:12;10.50;99.90
15103;DHT22;7652;53.584;9.998;2023-02-02T09:56:21;10.80;99.90
15103;DHT22;7652;53.584;9.998;2023-02-02T09:59:32;11.40;99.90
15103;DHT22;7652;53.584;9.998;2023-02-02T10:02:38;11.50;99.90
15103;DHT22;7652;53.584;9.998;2023-02-02T10:05:50;11.70;99.90
15103;DHT22;7652;53.584;9.998;2023-02-02T10:08:56;11.80;99.90
15103;DHT22;7652;53.584;9.998;2023-02-02T10:12:05;12.00;99.90
15103;DHT22;7652;53.584;9.998;2023-02-02T10:15:17;12.10;99.90
15103;DHT22;7652;53.584;9.998;2023-02-02T10:18:34;11.90;99.90
15103;DHT22;7652;53.584;9.998;2023-02-02T10:21:45;11.60;99.90
15103;DHT22;7652;53.584;9.998;2023-02-02T10:24:50;11.20;99.90
15103;DHT22;7652;53.584;9.998;2023-02-02T10:27:58;11.20;99.90
15103;DHT22;7652;53.584;9.998;2023-02-02T10:31:15;11.00;99.90
15103;DHT22;7652;53.584;9.998;2023-02-02T10:34:23;11.20;99.90
15103;DHT22;7652;53.584;9.998;2023-02-02T10:37:31;11.40;99.90
15103;DHT22;7652;53.584;9.998;2023-02-02T10:40:43;11.30;99.90
15103;DHT22;7652;53.584;9.998;2023-02-02T10:44:09;11.30;99.90
15103;DHT22;7652;53.584;9.998;2023-02-02T10:47:22;11.00;99.90
15103;DHT22;7652;53.584;9.998;2023-02-02T10:50:27;11.00;99.90
15103;DHT22;7652;53.584;9.998;2023-02-02T10:53:31;10.90;99.90
15103;DHT22;7652;53.584;9.998;2023-02-02T10:56:37;10.60;99.90
15103;DHT22;7652;53.584;9.998;2023-02-02T10:59:45;10.50;99.90
15103;DHT22;7652;53.584;9.998;2023-02-02T11:02:56;10.60;99.90
15103;DHT22;7652;53.584;9.998;2023-02-02T11:06:01;10.40;99.90
15103;DHT22;7652;53.584;9.998;2023-02-02T11:09:25;10.40;99.90
15103;DHT22;7652;53.584;9.998;2023-02-02T11:12:31;10.20;99.90
15103;DHT22;7652;53.584;9.998;2023-02-02T11:15:35;10.40;99.90
15103;DHT22;7652;53.584;9.998;2023-02-02T11:18:40;10.60;99.90
15103;DHT22;7652;53.584;9.998;2023-02-02T11:21:46;10.60;99.90
15103;DHT22;7652;53.584;9.998;2023-02-02T11:24:51;10.60;99.90
15103;DHT22;7652;53.584;9.998;2023-02-02T11:27:55;10.60;99.90
15103;DHT22;7652;53.584;9.998;2023-02-02T11:30:58;10.30;99.90
15103;DHT22;7652;53.584;9.998;2023-02-02T11:34:16;10.10;99.90
15103;DHT22;7652;53.584;9.998;2023-02-02T11:37:21;10.30;99.90
15103;DHT22;7652;53.584;9.998;2023-02-02T11:40:34;11.00;99.90
15103;DHT22;7652;53.584;9.998;2023-02-02T11:43:40;11.50;99.90
15103;DHT22;7652;53.584;9.998;2023-02-02T11:46:49;11.20;99.90
15103;DHT22;7652;53.584;9.998;2023-02-02T11:49:54;10.80;99.90
15103;DHT22;7652;53.584;9.998;2023-02-02T11:53:00;10.60;99.90
15103;DHT22;7652;53.584;9.998;2023-02-02T11:56:06;11.00;99.90
15103;DHT22;7652;53.584;9.998;2023-02-02T11:59:27;11.00;99.90
15103;DHT22;7652;53.584;9.998;2023-02-02T12:02:31;11.50;99.90
15103;DHT22;7652;53.584;9.998;2023-02-02T12:05:36;11.40;99.90
15103;DHT22;7652;53.584;9.998;2023-02-02T12:08:39;11.50;99.90
15103;DHT22;7652;53.584;9.998;2023-02-02T12:11:50;12.20;99.90
15103;DHT22;7652;53.584;9.998;2023-02-02T12:15:02;11.80;99.90
15103;DHT22;7652;53.584;9.998;2023-02-02T12:18:24;11.60;99.90
15103;DHT22;7652;53.584;9.998;2023-02-02T12:21:41;11.80;99.90
15103;DHT22;7652;53.584;9.998;2023-02-02T12:24:53;13.00;99.90
15103;DHT22;7652;53.584;9.998;2023-02-02T12:28:01;14.30;99.90
15103;DHT22;7652;53.584;9.998;2023-02-02T12:31:11;14.80;99.90
15103;DHT22;7652;53.584;9.998;2023-02-02T12:34:21;14.30;99.90
15103;DHT22;7652;53.584;9.998;2023-02-02T12:37:39;14.30;99.90
15103;DHT22;7652;53.584;9.998;2023-02-02T12:41:02;14.00;99.90
15103;DHT22;7652;53.584;9.998;2023-02-02T12:44:13;12.90;99.90
15103;DHT22;7652;53.584;9.998;2023-02-02T12:47:21;12.80;99.90
15103;DHT22;7652;53.584;9.998;2023-02-02T12:50:30;12.60;99.90
15103;DHT22;7652;53.584;9.998;2023-02-02T12:53:50;13.00;99.90
15103;DHT22;7652;53.584;9.998;2023-02-02T12:57:20;13.40;99.90
15103;DHT22;7652;53.584;9.998;2023-02-02T13:00:40;14.00;99.90
15103;DHT22;7652;53.584;9.998;2023-02-02T13:04:09;14.30;99.90
15103;DHT22;7652;53.584;9.998;2023-02-02T13:07:39;15.00;99.90
15103;DHT22;7652;53.584;9.998;2023-02-02T13:10:46;16.70;99.90
15103;DHT22;7652;53.584;9.998;2023-02-02T13:13:50;17.10;99.90
15103;DHT22;7652;53.584;9.998;2023-02-02T13:16:58;16.40;99.00
15103;DHT22;7652;53.584;9.998;2023-02-02T13:20:05;16.90;99.40
15103;DHT22;7652;53.584;9.998;2023-02-02T13:23:13;17.10;97.10
15103;DHT22;7652;53.584;9.998;2023-02-02T13:26:20;17.30;96.20
15103;DHT22;7652;53.584;9.998;2023-02-02T13:29:30;16.80;97.70
15103;DHT22;7652;53.584;9.998;2023-02-02T13:32:48;16.80;97.30
15103;DHT22;7652;53.584;9.998;2023-02-02T13:35:56;16.30;98.70
15103;DHT22;7652;53.584;9.998;2023-02-02T13:39:06;16.20;99.30
15103;DHT22;7652;53.584;9.998;2023-02-02T13:42:20;15.90;99.70
15103;DHT22;7652;53.584;9.998;2023-02-02T13:45:38;15.40;99.90
15103;DHT22;7652;53.584;9.998;2023-02-02T13:48:53;14.70;99.90
15103;DHT22;7652;53.584;9.998;2023-02-02T13:52:36;14.30;99.90
15103;DHT22;7652;53.584;9.998;2023-02-02T13:55:58;14.20;99.90
15103;DHT22;7652;53.584;9.998;2023-02-02T13:59:23;14.50;99.90
15103;DHT22;7652;53.584;9.998;2023-02-02T14:02:34;14.30;99.90
15103;DHT22;7652;53.584;9.998;2023-02-02T14:05:41;13.90;99.90
15103;DHT22;7652;53.584;9.998;2023-02-02T14:08:47;14.20;99.90
15103;DHT22;7652;53.584;9.998;2023-02-02T14:11:56;14.00;99.90
15103;DHT22;7652;53.584;9.998;2023-02-02T14:15:01;13.90;99.90
15103;DHT22;7652;53.584;9.998;2023-02-02T14:18:04;14.00;99.90
15103;DHT22;7652;53.584;9.998;2023-02-02T14:21:07;13.70;99.90
15103;DHT22;7652;53.584;9.998;2023-02-02T14:24:42;13.30;99.90
15103;DHT22;7652;53.584;9.998;2023-02-02T14:27:56;12.80;99.90
15103;DHT22;7652;53.584;9.998;2023-02-02T14:31:29;12.60;99.90
15103;DHT22;7652;53.584;9.998;2023-02-02T14:34:33;12.00;99.90
15103;DHT22;7652;53.584;9.998;2023-02-02T14:37:45;11.50;99.90
15103;DHT22;7652;53.584;9.998;2023-02-02T14:40:54;11.00;99.90
15103;DHT22;7652;53.584;9.998;2023-02-02T14:44:03;10.60;99.90
15103;DHT22;7652;53.584;9.998;2023-02-02T14:47:41;10.50;99.90
15103;DHT22;7652;53.584;9.998;2023-02-02T14:50:49;10.30;99.90
15103;DHT22;7652;53.584;9.998;2023-02-02T14:53:56;10.20;99.90
15103;DHT22;7652;53.584;9.998;2023-02-02T14:57:04;10.00;99.90
15103;DHT22;7652;53.584;9.998;2023-02-02T15:00:19;9.90;99.90
15103;DHT22;7652;53.584;9.998;2023-02-02T15:03:36;9.70;99.90
15103;DHT22;7652;53.584;9.998;2023-02-02T15:06:48;9.70;99.90
15103;DHT22;7652;53.584;9.998;2023-02-02T15:09:53;9.40;99.90
15103;DHT22;7652;53.584;9.998;2023-02-02T15:13:02;9.30;99.90
15103;DHT22;7652;53.584;9.998;2023-02-02T15:16:22;9.40;99.90
15103;DHT22;7652;53.584;9.998;2023-02-02T15:19:31;9.30;99.90
15103;DHT22;7652;53.584;9.998;2023-02-02T15:22:41;9.20;99.90
15103;DHT22;7652;53.584;9.998;2023-02-02T15:25:49;9.20;99.90
15103;DHT22;7652;53.584;9.998;2023-02-02T15:28:56;9.20;99.90
15103;DHT22;7652;53.584;9.998;2023-02-02T15:32:01;9.10;99.90
15103;DHT22;7652;53.584;9.998;2023-02-02T15:35:12;9.00;99.90
15103;DHT22;7652;53.584;9.998;2023-02-02T15:38:18;8.90;99.90
15103;DHT22;7652;53.584;9.998;2023-02-02T15:41:25;8.80;99.90
15103;DHT22;7652;53.584;9.998;2023-02-02T15:44:28;8.70;99.90
15103;DHT22;7652;53.584;9.998;2023-02-02T15:47:34;8.60;99.90
15103;DHT22;7652;53.584;9.998;2023-02-02T15:50:44;8.50;99.90
15103;DHT22;7652;53.584;9.998;2023-02-02T15:53:48;8.40;99.90
15103;DHT22;7652;53.584;9.998;2023-02-02T15:56:54;8.40;99.90
15103;DHT22;7652;53.584;9.998;2023-02-02T15:59:58;8.20;99.90
15103;DHT22;7652;53.584;9.998;2023-02-02T16:03:05;8.20;99.90
15103;DHT22;7652;53.584;9.998;2023-02-02T16:06:12;8.20;99.90
15103;DHT22;7652;53.584;9.998;2023-02-02T16:09:22;8.20;99.90
15103;DHT22;7652;53.584;9.998;2023-02-02T16:12:26;8.10;99.90
15103;DHT22;7652;53.584;9.998;2023-02-02T16:15:29;8.00;99.90
15103;DHT22;7652;53.584;9.998;2023-02-02T16:18:34;7.90;99.90
15103;DHT22;7652;53.584;9.998;2023-02-02T16:21:45;7.80;99.90
15103;DHT22;7652;53.584;9.998;2023-02-02T16:24:53;7.80;99.90
15103;DHT22;7652;53.584;9.998;2023-02-02T16:27:57;7.80;99.90
15103;DHT22;7652;53.584;9.998;2023-02-02T16:31:02;7.70;99.90
15103;DHT22;7652;53.584;9.998;2023-02-02T16:34:05;7.70;99.90
15103;DHT22;7652;53.584;9.998;2023-02-02T16:37:13;7.70;99.90
15103;DHT22;7652;53.584;9.998;2023-02-02T16:40:27;7.70;99.90
15103;DHT22;7652;53.584;9.998;2023-02-02T16:43:31;7.80;99.90
15103;DHT22;7652;53.584;9.998;2023-02-02T16:46:43;7.70;99.90
15103;DHT22;7652;53.584;9.998;2023-02-02T16:49:47;7.60;99.90
15103;DHT22;7652;53.584;9.998;2023-02-02T16:52:54;7.50;99.90
15103;DHT22;7652;53.584;9.998;2023-02-02T16:55:57;7.50;99.90
15103;DHT22;7652;53.584;9.998;2023-02-02T16:59:03;7.60;99.90
15103;DHT22;7652;53.584;9.998;2023-02-02T17:02:19;7.60;99.90
15103;DHT22;7652;53.584;9.998;2023-02-02T17:05:24;7.60;99.90
15103;DHT22;7652;53.584;9.998;2023-02-02T17:08:33;7.50;99.90
15103;DHT22;7652;53.584;9.998;2023-02-02T17:11:37;7.50;99.90
15103;DHT22;7652;53.584;9.998;2023-02-02T17:14:50;7.40;99.90
15103;DHT22;7652;53.584;9.998;2023-02-02T17:17:53;7.40;99.90
15103;DHT22;7652;53.584;9.998;2023-02-02T17:20:57;7.30;99.90
15103;DHT22;7652;53.584;9.998;2023-02-02T17:24:07;7.30;99.90
15103;DHT22;7652;53.584;9.998;2023-02-02T17:27:14;7.30;99.90
15103;DHT22;7652;53.584;9.998;2023-02-02T17:30:19;7.20;99.90
15103;DHT22;7652;53.584;9.998;2023-02-02T17:33:22;7.20;99.90
15103;DHT22;7652;53.584;9.998;2023-02-02T17:36:25;7.20;99.90
15103;DHT22;7652;53.584;9.998;2023-02-02T17:39:29;7.20;99.90
15103;DHT22;7652;53.584;9.998;2023-02-02T17:42:32;7.10;99.90
15103;DHT22;7652;53.584;9.998;2023-02-02T17:45:36;7.20;99.90
15103;DHT22;7652;53.584;9.998;2023-02-02T17:48:39;7.20;99.90
15103;DHT22;7652;53.584;9.998;2023-02-02T17:51:43;7.20;99.90
15103;DHT22;7652;53.584;9.998;2023-02-02T17:54:47;7.30;99.90
15103;DHT22;7652;53.584;9.998;2023-02-02T17:57:51;7.30;99.90
15103;DHT22;7652;53.584;9.998;2023-02-02T18:00:56;7.20;99.90
15103;DHT22;7652;53.584;9.998;2023-02-02T18:03:59;7.20;99.90
15103;DHT22;7652;53.584;9.998;2023-02-02T18:07:03;7.20;99.90
15103;DHT22;7652;53.584;9.998;2023-02-02T18:10:11;7.30;99.90
15103;DHT22;7652;53.584;9.998;2023-02-02T18:13:15;7.20;99.90
15103;DHT22;7652;53.584;9.998;2023-02-02T18:16:19;7.30;99.90
15103;DHT22;7652;53.584;9.998;2023-02-02T18:19:23;7.30;99.90
15103;DHT22;7652;53.584;9.998;2023-02-02T18:22:26;7.30;99.90
15103;DHT22;7652;53.584;9.998;2023-02-02T18:25:30;7.40;99.90
15103;DHT22;7652;53.584;9.998;2023-02-02T18:28:33;7.40;99.90
15103;DHT22;7652;53.584;9.998;2023-02-02T18:31:36;7.40;99.90
15103;DHT22;7652;53.584;9.998;2023-02-02T18:34:43;7.40;99.90
15103;DHT22;7652;53.584;9.998;2023-02-02T18:37:48;7.30;99.90
15103;DHT22;7652;53.584;9.998;2023-02-02T18:40:56;7.30;99.90
15103;DHT22;7652;53.584;9.998;2023-02-02T18:43:59;7.30;99.90
15103;DHT22;7652;53.584;9.998;2023-02-02T18:47:02;7.30;99.90
15103;DHT22;7652;53.584;9.998;2023-02-02T18:50:06;7.30;99.90
15103;DHT22;7652;53.584;9.998;2023-02-02T18:53:09;7.30;99.90
15103;DHT22;7652;53.584;9.998;2023-02-02T18:56:13;7.40;99.90
15103;DHT22;7652;53.584;9.998;2023-02-02T18:59:18;7.40;99.90
15103;DHT22;7652;53.584;9.998;2023-02-02T19:02:21;7.40;99.90
15103;DHT22;7652;53.584;9.998;2023-02-02T19:05:24;7.40;99.90
15103;DHT22;7652;53.584;9.998;2023-02-02T19:08:44;7.40;99.90
15103;DHT22;7652;53.584;9.998;2023-02-02T19:11:50;7.40;99.90
15103;DHT22;7652;53.584;9.998;2023-02-02T19:14:55;7.50;99.90
15103;DHT22;7652;53.584;9.998;2023-02-02T19:17:58;7.50;99.90
15103;DHT22;7652;53.584;9.998;2023-02-02T19:21:03;7.40;99.90
15103;DHT22;7652;53.584;9.998;2023-02-02T19:24:10;7.40;99.90
15103;DHT22;7652;53.584;9.998;2023-02-02T19:27:17;7.30;99.90
15103;DHT22;7652;53.584;9.998;2023-02-02T19:30:21;7.30;99.90
15103;DHT22;7652;53.584;9.998;2023-02-02T19:33:33;7.40;99.90
15103;DHT22;7652;53.584;9.998;2023-02-02T19:36:40;7.50;99.90
15103;DHT22;7652;53.584;9.998;2023-02-02T19:39:47;7.40;99.90
15103;DHT22;7652;53.584;9.998;2023-02-02T19:42:54;7.30;99.90
15103;DHT22;7652;53.584;9.998;2023-02-02T19:45:58;7.30;99.90
15103;DHT22;7652;53.584;9.998;2023-02-02T19:49:09;7.40;99.90
15103;DHT22;7652;53.584;9.998;2023-02-02T19:52:16;7.50;99.90
15103;DHT22;7652;53.584;9.998;2023-02-02T19:55:24;7.60;99.90
15103;DHT22;7652;53.584;9.998;2023-02-02T19:58:33;7.50;99.90
15103;DHT22;7652;53.584;9.998;2023-02-02T20:01:37;7.50;99.90
15103;DHT22;7652;53.584;9.998;2023-02-02T20:04:41;7.60;99.90
15103;DHT22;7652;53.584;9.998;2023-02-02T20:07:44;7.60;99.90
15103;DHT22;7652;53.584;9.998;2023-02-02T20:10:47;7.50;99.90
15103;DHT22;7652;53.584;9.998;2023-02-02T20:13:52;7.50;99.90
15103;DHT22;7652;53.584;9.998;2023-02-02T20:16:59;7.50;99.90
15103;DHT22;7652;53.584;9.998;2023-02-02T20:20:11;7.40;99.90